Time,TemperatureF,DewpointF,PressureIn,WindDirection,WindDirectionDegrees,WindSpeedMPH,WindSpeedGustMPH,Humidity,HourlyPrecipIn,Conditions,Clouds,dailyrainin,SoftwareType,DateUTC
2013-11-25 00:06:00,27.5,17.0,30.50,East,99,0.0,3.0,64,0.00,,,0.00,weatherlink.com 1.10,2013-11-25 06:06:00,
2013-11-25 00:22:00,27.6,17.0,30.50,NE,49,0.0,3.0,63,0.00,,,0.00,weatherlink.com 1.10,2013-11-25 06:22:00,
2013-11-25 00:38:00,27.7,17.0,30.49,ESE,114,0.0,2.0,63,0.00,,,0.00,weatherlink.com 1.10,2013-11-25 06:38:00,
2013-11-25 00:56:00,27.9,16.0,30.48,SE,133,0.0,2.0,61,0.00,,,0.00,weatherlink.com 1.10,2013-11-25 06:56:00,
2013-11-25 01:12:00,28.0,16.0,30.48,East,85,0.0,2.0,61,0.00,,,0.00,weatherlink.com 1.10,2013-11-25 07:12:00,
2013-11-25 01:28:00,28.1,16.0,30.47,East,82,0.0,3.0,60,0.00,,,0.00,weatherlink.com 1.10,2013-11-25 07:28:00,
2013-11-25 01:44:00,28.2,16.0,30.48,East,97,0.0,2.0,59,0.00,,,0.00,weatherlink.com 1.10,2013-11-25 07:44:00,
2013-11-25 02:00:00,28.3,16.0,30.47,SE,132,1.0,5.0,60,0.00,,,0.00,weatherlink.com 1.10,2013-11-25 08:00:00,
2013-11-25 02:17:00,28.3,16.0,30.47,NE,43,0.0,3.0,60,0.00,,,0.00,weatherlink.com 1.10,2013-11-25 08:17:00,
2013-11-25 02:33:00,28.3,17.0,30.45,SE,142,2.0,3.0,61,0.00,,,0.00,weatherlink.com 1.10,2013-11-25 08:33:00,
2013-11-25 02:49:00,28.2,16.0,30.45,ESE,109,0.0,2.0,60,0.00,,,0.00,weatherlink.com 1.10,2013-11-25 08:49:00,
2013-11-25 03:06:00,28.3,16.0,30.45,ESE,118,0.0,2.0,60,0.00,,,0.00,weatherlink.com 1.10,2013-11-25 09:06:00,
2013-11-25 03:22:00,28.4,16.0,30.44,SSE,163,0.0,5.0,60,0.00,,,0.00,weatherlink.com 1.10,2013-11-25 09:22:00,
2013-11-25 03:38:00,28.6,17.0,30.44,South,179,0.0,2.0,61,0.00,,,0.00,weatherlink.com 1.10,2013-11-25 09:38:00,
2013-11-25 03:54:00,28.6,17.0,30.43,SE,126,3.0,4.0,61,0.00,,,0.00,weatherlink.com 1.10,2013-11-25 09:54:00,
2013-11-25 04:11:00,28.8,17.0,30.43,SE,134,0.0,3.0,60,0.00,,,0.00,weatherlink.com 1.10,2013-11-25 10:11:00,
2013-11-25 04:27:00,28.8,17.0,30.43,SSW,205,0.0,3.0,61,0.00,,,0.00,weatherlink.com 1.10,2013-11-25 10:27:00,
2013-11-25 04:43:00,28.7,18.0,30.43,ESE,103,0.0,4.0,63,0.00,,,0.00,weatherlink.com 1.10,2013-11-25 10:43:00,
2013-11-25 05:00:00,28.7,18.0,30.42,ESE,113,0.0,3.0,63,0.00,,,0.00,weatherlink.com 1.10,2013-11-25 11:00:00,
2013-11-25 05:16:00,28.7,18.0,30.42,SE,125,1.0,3.0,63,0.00,,,0.00,weatherlink.com 1.10,2013-11-25 11:16:00,
2013-11-25 05:32:00,29.0,18.0,30.41,SE,138,0.0,3.0,64,0.00,,,0.00,weatherlink.com 1.10,2013-11-25 11:32:00,
2013-11-25 05:48:00,28.9,18.0,30.42,SSE,148,2.0,3.0,62,0.00,,,0.00,weatherlink.com 1.10,2013-11-25 11:48:00,
2013-11-25 06:04:00,29.0,18.0,30.42,SE,140,0.0,3.0,63,0.00,,,0.00,weatherlink.com 1.10,2013-11-25 12:04:00,
2013-11-25 06:20:00,29.1,18.0,30.42,SW,214,1.0,1.0,62,0.00,,,0.00,weatherlink.com 1.10,2013-11-25 12:20:00,
2013-11-25 06:36:00,29.1,18.0,30.41,SSE,160,0.0,2.0,63,0.00,,,0.00,weatherlink.com 1.10,2013-11-25 12:36:00,
2013-11-25 06:52:00,29.3,19.0,30.42,SSE,155,0.0,1.0,64,0.00,,,0.00,weatherlink.com 1.10,2013-11-25 12:52:00,
2013-11-25 07:09:00,29.6,19.0,30.42,SSW,210,0.0,1.0,63,0.00,,,0.00,weatherlink.com 1.10,2013-11-25 13:09:00,
2013-11-25 07:25:00,29.9,19.0,30.41,SE,134,0.0,1.0,63,0.00,,,0.00,weatherlink.com 1.10,2013-11-25 13:25:00,
2013-11-25 07:42:00,30.4,19.0,30.40,South,187,0.0,3.0,62,0.00,,,0.00,weatherlink.com 1.10,2013-11-25 13:42:00,
2013-11-25 07:58:00,30.9,19.0,30.41,ESE,117,0.0,3.0,61,0.00,,,0.00,weatherlink.com 1.10,2013-11-25 13:58:00,
2013-11-25 08:14:00,31.0,19.0,30.40,ESE,121,1.0,3.0,60,0.00,,,0.00,weatherlink.com 1.10,2013-11-25 14:14:00,
2013-11-25 08:30:00,31.4,19.0,30.41,SSE,167,1.0,4.0,60,0.00,,,0.00,weatherlink.com 1.10,2013-11-25 14:30:00,
2013-11-25 08:46:00,32.0,19.0,30.41,SE,138,1.0,4.0,59,0.00,,,0.00,weatherlink.com 1.10,2013-11-25 14:46:00,
2013-11-25 09:02:00,32.9,20.0,30.41,South,186,2.0,3.0,58,0.00,,,0.00,weatherlink.com 1.10,2013-11-25 15:02:00,
2013-11-25 09:19:00,33.7,20.0,30.41,South,189,2.0,5.0,56,0.00,,,0.00,weatherlink.com 1.10,2013-11-25 15:19:00,
2013-11-25 09:35:00,34.2,19.0,30.40,SW,215,1.0,6.0,54,0.00,,,0.00,weatherlink.com 1.10,2013-11-25 15:35:00,
2013-11-25 09:51:00,35.2,20.0,30.40,SW,220,3.0,4.0,53,0.00,,,0.00,weatherlink.com 1.10,2013-11-25 15:51:00,
2013-11-25 10:07:00,36.3,20.0,30.40,SSE,148,2.0,5.0,51,0.00,,,0.00,weatherlink.com 1.10,2013-11-25 16:07:00,
2013-11-25 10:23:00,36.7,20.0,30.39,SSW,205,1.0,8.0,51,0.00,,,0.00,weatherlink.com 1.10,2013-11-25 16:23:00,
2013-11-25 10:41:00,37.8,20.0,30.38,SSE,163,2.0,7.0,49,0.00,,,0.00,weatherlink.com 1.10,2013-11-25 16:41:00,
2013-11-25 10:57:00,38.5,20.0,30.37,SW,215,1.0,6.0,48,0.00,,,0.00,weatherlink.com 1.10,2013-11-25 16:57:00,
2013-11-25 11:13:00,38.0,20.0,30.37,SW,222,2.0,6.0,48,0.00,,,0.00,weatherlink.com 1.10,2013-11-25 17:13:00,
2013-11-25 11:29:00,38.4,20.0,30.34,SSW,213,4.0,6.0,48,0.00,,,0.00,weatherlink.com 1.10,2013-11-25 17:29:00,
2013-11-25 11:46:00,39.6,22.0,30.33,SW,236,2.0,5.0,48,0.00,,,0.00,weatherlink.com 1.10,2013-11-25 17:46:00,
2013-11-25 12:03:00,40.5,22.0,30.33,SSW,194,0.0,3.0,47,0.00,,,0.00,weatherlink.com 1.10,2013-11-25 18:03:00,
2013-11-25 12:19:00,40.8,22.0,30.33,SW,224,2.0,5.0,46,0.00,,,0.00,weatherlink.com 1.10,2013-11-25 18:19:00,
2013-11-25 12:35:00,41.1,22.0,30.32,WSW,237,1.0,4.0,46,0.00,,,0.00,weatherlink.com 1.10,2013-11-25 18:35:00,
2013-11-25 12:51:00,41.2,21.0,30.32,WSW,248,1.0,5.0,45,0.00,,,0.00,weatherlink.com 1.10,2013-11-25 18:51:00,
2013-11-25 13:08:00,41.5,22.0,30.31,West,265,2.0,3.0,45,0.00,,,0.00,weatherlink.com 1.10,2013-11-25 19:08:00,
2013-11-25 13:24:00,41.9,23.0,30.30,SSW,198,2.0,3.0,46,0.00,,,0.00,weatherlink.com 1.10,2013-11-25 19:24:00,
2013-11-25 13:41:00,42.0,23.0,30.29,SSW,205,2.0,4.0,46,0.00,,,0.00,weatherlink.com 1.10,2013-11-25 19:41:00,
2013-11-25 13:57:00,42.1,23.0,30.30,WSW,252,1.0,4.0,46,0.00,,,0.00,weatherlink.com 1.10,2013-11-25 19:57:00,
2013-11-25 14:13:00,41.8,24.0,30.31,SW,236,3.0,4.0,49,0.00,,,0.00,weatherlink.com 1.10,2013-11-25 20:13:00,
2013-11-25 14:29:00,39.9,26.0,30.32,WSW,238,4.0,11.0,57,0.00,,,0.00,weatherlink.com 1.10,2013-11-25 20:29:00,
2013-11-25 14:45:00,38.8,28.0,30.32,South,182,6.0,6.0,64,0.00,,,0.00,weatherlink.com 1.10,2013-11-25 20:45:00,
2013-11-25 15:01:00,35.1,30.0,30.32,ESE,118,1.0,6.0,83,0.00,,,0.00,weatherlink.com 1.10,2013-11-25 21:01:00,
2013-11-25 15:18:00,33.3,31.0,30.31,SW,227,1.0,2.0,91,0.00,,,0.00,weatherlink.com 1.10,2013-11-25 21:18:00,
2013-11-25 15:34:00,32.9,31.0,30.30,SSW,202,1.0,1.0,92,0.00,,,0.00,weatherlink.com 1.10,2013-11-25 21:34:00,
2013-11-25 15:50:00,32.8,31.0,30.29,SE,132,1.0,1.0,93,0.00,,,0.00,weatherlink.com 1.10,2013-11-25 21:50:00,
2013-11-25 16:06:00,32.7,31.0,30.29,SSE,153,0.0,2.0,93,0.00,,,0.00,weatherlink.com 1.10,2013-11-25 22:06:00,
2013-11-25 16:22:00,32.5,31.0,30.28,SSW,205,0.0,2.0,94,0.00,,,0.00,weatherlink.com 1.10,2013-11-25 22:22:00,
2013-11-25 16:38:00,32.5,31.0,30.30,SW,218,0.0,1.0,94,0.00,,,0.00,weatherlink.com 1.10,2013-11-25 22:38:00,
2013-11-25 16:54:00,32.5,31.0,30.30,SSW,207,0.0,2.0,94,0.00,,,0.00,weatherlink.com 1.10,2013-11-25 22:54:00,
2013-11-25 17:12:00,32.5,31.0,30.33,NNW,333,0.0,2.0,94,0.00,,,0.00,weatherlink.com 1.10,2013-11-25 23:12:00,
2013-11-25 17:28:00,32.4,31.0,30.31,NNW,332,0.0,0.0,94,0.00,,,0.00,weatherlink.com 1.10,2013-11-25 23:28:00,
2013-11-25 17:44:00,32.6,31.0,30.28,SE,134,0.0,1.0,94,0.00,,,0.00,weatherlink.com 1.10,2013-11-25 23:44:00,
2013-11-25 18:01:00,32.6,31.0,30.28,SSE,168,0.0,1.0,94,0.00,,,0.00,weatherlink.com 1.10,2013-11-26 00:01:00,
2013-11-25 18:17:00,32.6,31.0,30.29,SSE,160,0.0,1.0,94,0.00,,,0.00,weatherlink.com 1.10,2013-11-26 00:17:00,
2013-11-25 18:34:00,32.6,31.0,30.28,SSW,210,0.0,2.0,94,0.00,,,0.00,weatherlink.com 1.10,2013-11-26 00:34:00,
2013-11-25 18:51:00,32.6,31.0,30.29,SSE,148,0.0,1.0,94,0.00,,,0.00,weatherlink.com 1.10,2013-11-26 00:51:00,
2013-11-25 19:07:00,32.7,31.0,30.29,SW,221,0.0,1.0,94,0.00,,,0.00,weatherlink.com 1.10,2013-11-26 01:07:00,
2013-11-25 19:23:00,32.8,31.0,30.29,SE,126,0.0,3.0,94,0.00,,,0.00,weatherlink.com 1.10,2013-11-26 01:23:00,
2013-11-25 19:39:00,32.7,31.0,30.26,SE,134,0.0,2.0,94,0.00,,,0.00,weatherlink.com 1.10,2013-11-26 01:39:00,
2013-11-25 19:56:00,32.7,31.0,30.26,SW,221,0.0,4.0,94,0.00,,,0.00,weatherlink.com 1.10,2013-11-26 01:56:00,
2013-11-25 20:13:00,32.7,31.0,30.27,West,281,1.0,1.0,94,0.00,,,0.00,weatherlink.com 1.10,2013-11-26 02:13:00,
2013-11-25 20:29:00,32.7,31.0,30.26,South,173,0.0,1.0,94,0.00,,,0.00,weatherlink.com 1.10,2013-11-26 02:29:00,
2013-11-25 20:45:00,32.7,31.0,30.24,SSE,161,0.0,1.0,94,0.00,,,0.00,weatherlink.com 1.10,2013-11-26 02:45:00,
2013-11-25 21:01:00,32.7,31.0,30.22,SSE,154,0.0,1.0,94,0.00,,,0.00,weatherlink.com 1.10,2013-11-26 03:01:00,
2013-11-25 21:17:00,32.8,31.0,30.21,East,101,3.0,3.0,94,0.00,,,0.00,weatherlink.com 1.10,2013-11-26 03:17:00,
2013-11-25 21:34:00,32.9,31.0,30.21,SSE,165,0.0,1.0,94,0.00,,,0.00,weatherlink.com 1.10,2013-11-26 03:34:00,
2013-11-25 21:50:00,33.0,31.0,30.23,SW,227,0.0,1.0,94,0.00,,,0.00,weatherlink.com 1.10,2013-11-26 03:50:00,
2013-11-25 22:06:00,33.1,32.0,30.25,SW,215,0.0,1.0,94,0.00,,,0.00,weatherlink.com 1.10,2013-11-26 04:06:00,
2013-11-25 22:22:00,33.2,32.0,30.25,SW,223,0.0,1.0,94,0.00,,,0.00,weatherlink.com 1.10,2013-11-26 04:22:00,
2013-11-25 22:38:00,33.1,32.0,30.24,SW,224,1.0,1.0,94,0.00,,,0.00,weatherlink.com 1.10,2013-11-26 04:38:00,
2013-11-25 22:54:00,33.2,32.0,30.24,WSW,248,0.0,1.0,94,0.00,,,0.00,weatherlink.com 1.10,2013-11-26 04:54:00,
2013-11-25 23:11:00,33.1,32.0,30.24,WSW,248,0.0,1.0,94,0.00,,,0.00,weatherlink.com 1.10,2013-11-26 05:11:00,
2013-11-25 23:27:00,33.1,32.0,30.23,SW,218,0.0,1.0,94,0.00,,,0.00,weatherlink.com 1.10,2013-11-26 05:27:00,
2013-11-25 23:43:00,33.3,32.0,30.22,East,87,1.0,1.0,95,0.00,,,0.00,weatherlink.com 1.10,2013-11-26 05:43:00,
2013-11-25 23:59:00,33.5,32.0,30.21,NE,50,0.0,2.0,95,0.00,,,0.00,weatherlink.com 1.10,2013-11-26 05:59:00,